createdAt,value
2024-04-09T00:00:00.754Z,1000.6
2024-04-09T00:10:00.514Z,1000.8
2024-04-09T00:20:00.619Z,1000.8
2024-04-09T00:30:00.702Z,1000.8
2024-04-09T00:40:01.125Z,1000.5
2024-04-09T00:50:00.534Z,1000.8
2024-04-09T01:00:00.897Z,1000.6
2024-04-09T01:10:00.600Z,1000.6
2024-04-09T01:20:00.600Z,1000.5
2024-04-09T01:30:00.661Z,1000.4
2024-04-09T01:40:00.666Z,1000.2
2024-04-09T01:50:00.557Z,1000.0
2024-04-09T02:00:01.045Z,999.9
2024-04-09T02:10:00.614Z,999.7
2024-04-09T02:20:00.583Z,999.6
2024-04-09T02:30:00.696Z,999.5
2024-04-09T02:40:00.909Z,999.5
2024-04-09T02:50:00.610Z,999.5
2024-04-09T03:00:00.867Z,999.4
2024-04-09T03:10:00.593Z,999.3
2024-04-09T03:20:00.574Z,999.2
2024-04-09T03:30:00.604Z,999.3
2024-04-09T03:40:00.678Z,999.3
2024-04-09T03:50:00.532Z,999.2
2024-04-09T04:00:00.718Z,999.4
2024-04-09T04:10:00.597Z,999.4
2024-04-09T04:20:00.620Z,999.4
2024-04-09T04:30:00.712Z,999.6
2024-04-09T04:40:00.647Z,999.6
2024-04-09T04:50:00.597Z,999.8
2024-04-09T05:00:00.718Z,1000.0
2024-04-09T05:10:00.550Z,1000.1
2024-04-09T05:20:00.593Z,1000.3
2024-04-09T05:30:00.680Z,1000.6
2024-04-09T05:40:00.636Z,1001.2
2024-04-09T05:50:00.587Z,1001.9
2024-04-09T06:00:00.786Z,1002.3
2024-04-09T06:10:00.884Z,1003.1
2024-04-09T06:20:00.841Z,1000.9
2024-04-09T06:30:00.821Z,1002.4
2024-04-09T06:40:00.688Z,998.0
2024-04-09T06:50:00.607Z,952.2
2024-04-09T07:00:00.754Z,954.9
2024-04-09T07:10:00.563Z,945.1
2024-04-09T07:20:00.589Z,959.2
2024-04-09T07:30:00.703Z,966.2
2024-04-09T07:40:00.664Z,968.5
2024-04-09T07:50:00.591Z,966.9
2024-04-09T08:00:00.906Z,964.4
2024-04-09T08:10:00.769Z,971.8
2024-04-09T08:20:00.850Z,964.9
2024-04-09T08:30:00.868Z,977.1
2024-04-09T08:40:04.760Z,981.7
2024-04-09T08:50:02.773Z,974.7
2024-04-09T09:00:00.522Z,982.2
2024-04-09T09:10:00.536Z,992.0
2024-04-09T09:20:04.167Z,982.9
2024-04-09T09:30:00.333Z,992.1
2024-04-09T09:40:00.579Z,1004.1
2024-04-09T09:50:10.181Z,1001.4
2024-04-09T10:00:00.700Z,999.7
2024-04-09T10:10:00.490Z,1001.2
2024-04-09T10:20:00.513Z,1004.1
2024-04-09T10:30:00.462Z,1005.5
2024-04-09T10:40:00.503Z,1014.2
2024-04-09T10:50:00.270Z,1014.0
2024-04-09T11:00:00.469Z,1017.8
2024-04-09T11:10:00.489Z,1004.5
2024-04-09T11:20:00.295Z,1012.6
2024-04-09T11:30:00.489Z,992.5
2024-04-09T11:40:00.555Z,1004.0
2024-04-09T11:50:00.418Z,1006.8
2024-04-09T12:00:00.478Z,1000.1
2024-04-09T12:10:00.270Z,998.9
2024-04-09T12:20:00.369Z,1003.6
2024-04-09T12:30:00.631Z,1008.2
2024-04-09T12:40:00.326Z,1013.8
2024-04-09T12:50:00.650Z,1001.3
2024-04-09T13:00:14.183Z,1002.2
2024-04-09T13:10:00.464Z,1015.6
2024-04-09T13:20:00.341Z,1011.1
2024-04-09T13:30:00.374Z,1006.1
2024-04-09T13:40:00.344Z,994.7
2024-04-09T13:50:00.336Z,997.2
2024-04-09T14:00:00.424Z,993.4
2024-04-09T14:10:00.236Z,996.7
2024-04-09T14:20:00.317Z,995.7
2024-04-09T14:30:00.572Z,994.9
2024-04-09T14:40:00.371Z,994.5
2024-04-09T14:50:00.377Z,994.6
2024-04-09T15:00:00.330Z,990.1
2024-04-09T15:10:01.383Z,984.6
2024-04-09T15:20:00.329Z,983.9
2024-04-09T15:30:02.029Z,978.7
2024-04-09T15:40:00.448Z,978.4
2024-04-09T15:50:00.381Z,978.5
2024-04-09T16:00:00.446Z,974.8
2024-04-09T16:10:00.621Z,973.3
2024-04-09T16:20:00.381Z,972.2
2024-04-09T16:30:00.410Z,970.4
2024-04-09T16:40:00.362Z,968.3
2024-04-09T16:50:00.531Z,966.4
2024-04-09T17:00:00.502Z,962.5
2024-04-09T17:10:00.295Z,956.3
2024-04-09T17:20:00.444Z,973.5
2024-04-09T17:30:00.313Z,993.0
2024-04-09T17:40:00.511Z,1001.0
2024-04-09T17:50:00.398Z,1000.8
2024-04-09T18:00:00.467Z,1000.4
2024-04-09T18:10:00.300Z,1000.4
2024-04-09T18:20:00.286Z,1000.5
2024-04-09T18:30:00.300Z,1000.6
2024-04-09T18:40:00.802Z,1000.8
2024-04-09T18:50:00.316Z,1001.1
2024-04-09T19:00:00.352Z,1001.3
2024-04-09T19:10:00.271Z,1001.2
2024-04-09T19:20:00.361Z,1001.1
2024-04-09T19:30:00.306Z,1001.2
2024-04-09T19:40:02.168Z,1001.4
2024-04-09T19:50:00.496Z,1001.3
2024-04-09T20:00:02.195Z,1001.2
2024-04-09T20:10:00.274Z,1001.5
2024-04-09T20:20:00.363Z,1001.5
2024-04-09T20:30:00.278Z,1001.4
2024-04-09T20:40:00.378Z,1001.4
2024-04-09T20:50:00.331Z,1001.4
2024-04-09T21:00:00.560Z,1001.2
2024-04-09T21:10:00.296Z,1001.1
2024-04-09T21:20:00.541Z,1001.3
2024-04-09T21:30:00.268Z,1001.4
2024-04-09T21:40:00.530Z,1001.3
2024-04-09T21:50:00.365Z,1001.4
2024-04-09T22:00:00.493Z,1001.6
2024-04-09T22:10:00.309Z,1001.8
2024-04-09T22:20:00.351Z,1001.9
2024-04-09T22:30:00.360Z,1002.0
2024-04-09T22:40:00.408Z,1002.1
2024-04-09T22:50:00.567Z,1002.1
2024-04-09T23:00:00.557Z,1002.0
2024-04-09T23:10:00.289Z,1001.9
2024-04-09T23:20:00.485Z,1002.0
2024-04-09T23:30:00.250Z,1002.1
2024-04-09T23:40:00.417Z,1001.9
2024-04-09T23:50:00.402Z,1002.1
